Time;durP1;ratioP1;P1;durP2;ratioP2;P2;SDS_P1;SDS_P2;PMS_P1;PMS_P2;Temp;Humidity;BMP_temperature;BMP_pressure;BME280_temperature;BME280_humidity;BME280_pressure;Samples;Min_cycle;Max_cycle;Signal;HPM_P1;HPM_P2
2021/10/20 00:01:29;;;;;;;19.12;10.98;;;;;;;3.48;55.00;100372.75;1792004;80;21544;-36
2021/10/20 00:03:56;;;;;;;21.57;12.03;;;;;;;3.49;55.36;100377.00;1792497;79;21064;-36
2021/10/20 00:06:22;;;;;;;24.60;11.93;;;;;;;3.52;55.00;100366.80;1792228;80;21021;-36
2021/10/20 00:08:51;;;;;;;24.27;11.83;;;;;;;3.54;55.01;100361.39;1792804;80;21104;-36
2021/10/20 00:11:18;;;;;;;23.05;11.30;;;;;;;3.58;55.09;100362.44;1792126;80;21120;-36
2021/10/20 00:13:46;;;;;;;22.35;10.88;;;;;;;3.59;55.31;100357.30;1792390;80;21535;-36
2021/10/20 00:16:12;;;;;;;19.95;10.48;;;;;;;3.60;55.36;100360.25;1792166;80;21049;-36
2021/10/20 00:18:44;;;;;;;19.85;11.20;;;;;;;3.63;55.26;100358.89;1792605;79;21484;-36
2021/10/20 00:21:08;;;;;;;18.87;11.35;;;;;;;3.67;55.31;100349.98;1769043;80;21083;-36
2021/10/20 00:23:35;;;;;;;18.32;10.93;;;;;;;3.71;55.21;100339.46;1761781;80;21804;-36
2021/10/20 00:26:01;;;;;;;21.73;11.97;;;;;;;3.71;55.03;100334.89;1761055;81;20985;-35
2021/10/20 00:28:28;;;;;;;21.55;11.95;;;;;;;3.71;54.83;100329.53;1755792;81;21036;-36
2021/10/20 00:30:54;;;;;;;25.15;12.60;;;;;;;3.74;54.52;100325.45;1761381;81;21093;-35
2021/10/20 00:33:21;;;;;;;26.37;12.90;;;;;;;3.74;54.26;100316.08;1779221;80;21010;-36
2021/10/20 00:35:48;;;;;;;20.40;11.85;;;;;;;3.74;54.00;100308.83;1760511;81;21914;-36
2021/10/20 00:38:14;;;;;;;22.77;12.53;;;;;;;3.75;53.78;100307.75;1760442;81;20982;-36
2021/10/20 00:40:42;;;;;;;20.90;11.80;;;;;;;3.77;53.82;100306.92;1760633;80;20981;-36
2021/10/20 00:43:09;;;;;;;22.95;12.53;;;;;;;3.78;54.03;100305.81;1760435;81;21096;-36
2021/10/20 00:45:35;;;;;;;25.60;12.23;;;;;;;3.80;54.05;100302.84;1760295;81;21578;-36
2021/10/20 00:48:04;;;;;;;20.52;11.60;;;;;;;3.82;53.99;100303.37;1760370;81;21107;-36
2021/10/20 00:50:31;;;;;;;24.67;12.40;;;;;;;3.82;54.20;100300.14;1762741;80;20962;-36
2021/10/20 00:52:58;;;;;;;22.58;12.25;;;;;;;3.84;54.20;100307.34;1784154;80;21544;-36
2021/10/20 00:55:25;;;;;;;21.30;12.18;;;;;;;3.84;54.16;100308.68;1760114;81;20930;-36
2021/10/20 00:57:51;;;;;;;23.75;11.90;;;;;;;3.85;54.28;100307.59;1760559;81;21085;-36
2021/10/20 01:00:18;;;;;;;22.13;11.18;;;;;;;3.87;54.36;100312.68;1760447;81;21097;-36
2021/10/20 01:02:45;;;;;;;18.00;10.68;;;;;;;3.88;55.35;100312.37;1760496;81;21042;-36
2021/10/20 01:05:14;;;;;;;19.60;10.35;;;;;;;3.86;55.82;100316.45;1760548;81;21299;-36
2021/10/20 01:07:41;;;;;;;20.97;10.98;;;;;;;3.84;55.99;100323.43;1760575;81;21571;-36
2021/10/20 01:10:10;;;;;;;18.52;10.90;;;;;;;3.79;55.22;100312.78;1760453;81;21531;-36
2021/10/20 01:12:39;;;;;;;17.10;10.53;;;;;;;3.76;55.02;100311.23;1760459;81;21021;-36
2021/10/20 01:15:12;;;;;;;20.92;11.03;;;;;;;3.76;55.31;100320.62;1760323;81;21025;-36
2021/10/20 01:17:40;;;;;;;22.42;10.98;;;;;;;3.78;55.59;100315.74;1760374;81;20997;-36
2021/10/20 01:20:09;;;;;;;26.68;11.90;;;;;;;3.80;55.72;100314.38;1760389;81;21516;-36
2021/10/20 01:22:36;;;;;;;20.30;10.45;;;;;;;3.85;55.70;100321.55;1760349;81;21086;-36
2021/10/20 01:25:04;;;;;;;20.65;11.08;;;;;;;3.87;55.71;100316.13;1760595;81;21110;-36
2021/10/20 01:27:32;;;;;;;24.67;10.65;;;;;;;3.90;55.38;100316.11;1760477;81;21001;-36
2021/10/20 01:29:59;;;;;;;20.92;10.28;;;;;;;3.89;55.25;100304.58;1760352;81;21045;-36
2021/10/20 01:32:27;;;;;;;16.50;10.15;;;;;;;3.88;55.20;100296.81;1764060;81;21021;-36
2021/10/20 01:34:54;;;;;;;22.52;9.53;;;;;;;3.87;55.03;100287.97;1785265;80;21092;-36
2021/10/20 01:37:25;;;;;;;19.67;10.18;;;;;;;3.85;54.70;100288.02;1770052;79;21133;-36
2021/10/20 01:39:56;;;;;;;21.12;10.72;;;;;;;3.79;54.66;100292.66;1785428;80;20987;-37
2021/10/20 01:42:20;;;;;;;21.90;10.48;;;;;;;3.78;54.78;100298.31;1785077;80;21016;-36
2021/10/20 01:44:47;;;;;;;19.50;10.55;;;;;;;3.75;54.77;100295.67;1785563;80;21003;-36
2021/10/20 01:47:13;;;;;;;22.20;10.65;;;;;;;3.73;54.82;100296.50;1779393;80;21366;-36
2021/10/20 01:49:41;;;;;;;17.15;10.40;;;;;;;3.71;54.71;100294.67;1785569;80;21165;-36
2021/10/20 01:52:07;;;;;;;19.70;10.23;;;;;;;3.67;54.70;100295.00;1785492;79;20983;-36
2021/10/20 01:54:34;;;;;;;17.48;10.08;;;;;;;3.30;54.77;100240.83;1766839;81;21029;-36
2021/10/20 01:57:00;;;;;;;18.52;10.15;;;;;;;3.60;54.86;100301.27;1785220;80;21005;-36
2021/10/20 01:59:27;;;;;;;19.10;10.88;;;;;;;3.57;54.95;100301.85;1754541;81;21014;-36
2021/10/20 02:01:54;;;;;;;22.93;10.13;;;;;;;3.56;54.97;100293.55;1766971;81;21130;-36
2021/10/20 02:04:21;;;;;;;17.07;10.35;;;;;;;3.54;54.89;100295.71;1785408;80;20934;-35
2021/10/20 02:06:47;;;;;;;20.95;10.70;;;;;;;3.53;54.72;100298.70;1766965;81;21096;-36
2021/10/20 02:09:15;;;;;;;20.37;10.20;;;;;;;3.49;54.74;100295.78;1785223;80;20985;-36
2021/10/20 02:11:42;;;;;;;21.02;10.08;;;;;;;3.49;54.70;100295.78;1754289;81;21097;-36
2021/10/20 02:14:11;;;;;;;19.25;10.63;;;;;;;3.47;54.81;100290.73;1785282;80;21006;-36
2021/10/20 02:16:39;;;;;;;24.63;10.65;;;;;;;3.47;54.86;100293.95;1766856;81;20974;-35
2021/10/20 02:19:06;;;;;;;19.02;9.88;;;;;;;3.47;54.92;100300.11;1785537;80;21101;-36
2021/10/20 02:21:33;;;;;;;19.23;10.65;;;;;;;3.50;54.93;100298.72;1766736;81;20997;-36
2021/10/20 02:24:00;;;;;;;19.90;10.38;;;;;;;3.53;54.88;100296.81;1785656;80;21077;-36
2021/10/20 02:26:26;;;;;;;18.95;10.20;;;;;;;3.56;55.05;100290.87;1766848;81;21642;-36
2021/10/20 02:28:55;;;;;;;18.50;10.28;;;;;;;3.61;55.02;100294.02;1785403;80;20970;-36
2021/10/20 02:31:21;;;;;;;23.83;10.10;;;;;;;3.65;54.97;100275.72;1766648;81;20966;-36
2021/10/20 02:33:49;;;;;;;22.90;10.70;;;;;;;3.70;54.75;100282.34;1754006;81;21107;-37
2021/10/20 02:36:15;;;;;;;16.80;10.30;;;;;;;3.72;54.82;100284.20;1753818;81;20999;-37
2021/10/20 02:38:43;;;;;;;15.70;9.63;;;;;;;3.75;54.92;100280.93;1764210;81;21842;-36
2021/10/20 02:41:09;;;;;;;21.30;10.28;;;;;;;3.79;54.86;100279.80;1733701;82;20971;-36
2021/10/20 02:43:38;;;;;;;20.02;10.63;;;;;;;3.83;54.64;100280.80;1730550;82;21102;-35
2021/10/20 02:46:04;;;;;;;19.92;10.20;;;;;;;3.85;54.49;100279.44;1739538;82;21039;-36
2021/10/20 02:48:31;;;;;;;17.25;10.38;;;;;;;3.89;54.37;100282.32;1764023;81;21054;-36
2021/10/20 02:50:59;;;;;;;19.55;11.22;;;;;;;3.93;54.35;100293.52;1741677;81;21156;-36
2021/10/20 02:53:25;;;;;;;20.62;11.80;;;;;;;3.96;54.37;100296.17;1733706;82;21047;-36
2021/10/20 02:55:52;;;;;;;17.40;10.63;;;;;;;3.98;54.36;100295.31;1733899;82;21625;-36
2021/10/20 02:58:19;;;;;;;19.62;10.08;;;;;;;4.01;54.36;100298.77;1733711;82;21089;-36
2021/10/20 03:00:45;;;;;;;21.25;11.22;;;;;;;4.05;54.30;100297.64;1733962;82;21038;-36
2021/10/20 03:03:12;;;;;;;20.90;11.10;;;;;;;4.07;54.30;100294.09;1733768;82;21139;-36
2021/10/20 03:05:39;;;;;;;18.07;10.98;;;;;;;4.11;54.30;100303.18;1733763;82;20987;-36
2021/10/20 03:08:05;;;;;;;19.60;11.20;;;;;;;4.14;54.25;100302.58;1734186;82;21070;-36
2021/10/20 03:10:33;;;;;;;18.32;10.53;;;;;;;4.17;54.33;100310.03;1733654;82;20975;-36
2021/10/20 03:12:59;;;;;;;19.75;10.80;;;;;;;4.19;54.43;100308.67;1733992;82;21504;-36
2021/10/20 03:15:26;;;;;;;19.95;10.85;;;;;;;4.23;54.36;100312.89;1734086;82;21100;-36
2021/10/20 03:17:53;;;;;;;22.42;11.00;;;;;;;4.28;54.31;100316.84;1733859;82;21505;-36
2021/10/20 03:20:20;;;;;;;19.45;10.43;;;;;;;4.32;54.27;100310.59;1733606;82;21525;-36
2021/10/20 03:22:47;;;;;;;18.27;10.40;;;;;;;4.35;54.42;100309.22;1728317;83;21020;-36
2021/10/20 03:25:14;;;;;;;19.98;10.48;;;;;;;4.39;54.39;100324.98;1742470;82;21063;-36
2021/10/20 03:27:48;;;;;;;17.82;10.03;;;;;;;4.44;54.79;100323.55;1742257;82;21127;-36
2021/10/20 03:30:17;;;;;;;15.58;9.40;;;;;;;4.48;54.83;100320.52;1742199;82;21046;-36
2021/10/20 03:32:44;;;;;;;16.93;9.83;;;;;;;4.53;54.93;100327.69;1749175;81;21022;-36
2021/10/20 03:35:11;;;;;;;16.48;9.85;;;;;;;4.57;55.05;100324.66;1757012;81;21100;-36
2021/10/20 03:37:38;;;;;;;17.37;9.88;;;;;;;4.61;54.92;100313.03;1757094;81;21112;-36
2021/10/20 03:40:06;;;;;;;16.42;9.20;;;;;;;4.67;54.55;100310.50;1757134;81;21199;-36
2021/10/20 03:42:34;;;;;;;16.27;9.03;;;;;;;4.70;53.91;100304.53;1756932;81;21842;-36
2021/10/20 03:47:40;;;;;;;14.75;8.55;;;;;;;4.73;53.03;100307.19;1829377;78;22689;-36
2021/10/20 03:50:08;;;;;;;17.95;8.95;;;;;;;4.63;52.96;100302.80;1802903;79;21509;-35
2021/10/20 03:52:35;;;;;;;13.93;8.95;;;;;;;4.67;53.02;100309.70;1773315;79;21091;-36
2021/10/20 03:55:03;;;;;;;15.93;8.50;;;;;;;4.70;52.84;100312.59;1771134;81;21535;-36
2021/10/20 03:57:38;;;;;;;16.17;9.20;;;;;;;4.73;52.93;100306.64;1771476;80;21052;-36
2021/10/20 04:00:09;;;;;;;17.60;8.40;;;;;;;4.76;52.80;100306.03;1771304;81;21020;-36
2021/10/20 04:02:43;;;;;;;16.45;8.80;;;;;;;4.77;53.02;100302.80;1771362;81;21506;-37
2021/10/20 04:05:19;;;;;;;19.07;9.03;;;;;;;4.79;53.25;100292.00;1771648;81;21758;-36
2021/10/20 04:07:48;;;;;;;22.32;9.53;;;;;;;4.86;53.59;100278.72;1771536;80;21539;-36
2021/10/20 04:10:19;;;;;;;18.87;9.48;;;;;;;4.88;53.34;100280.58;1771079;81;21610;-36
2021/10/20 04:12:46;;;;;;;20.00;9.50;;;;;;;4.85;53.46;100285.19;1770259;81;20980;-36
2021/10/20 04:15:14;;;;;;;19.30;10.60;;;;;;;4.80;53.55;100282.05;1771099;81;21072;-36
2021/10/20 04:17:40;;;;;;;19.50;10.30;;;;;;;4.77;53.52;100268.69;1771346;81;21150;-36
2021/10/20 04:20:09;;;;;;;18.00;10.25;;;;;;;4.75;53.56;100256.08;1770979;81;21062;-36
2021/10/20 04:22:36;;;;;;;20.75;11.57;;;;;;;4.74;53.55;100252.38;1765364;81;21603;-36
2021/10/20 04:25:04;;;;;;;23.83;12.03;;;;;;;4.70;53.72;100243.30;1770983;81;20969;-36
2021/10/20 04:27:32;;;;;;;21.70;12.00;;;;;;;4.67;53.86;100236.65;1771316;80;21524;-36
2021/10/20 04:29:59;;;;;;;20.35;11.18;;;;;;;4.64;54.05;100249.34;1771074;80;21108;-36
2021/10/20 04:32:27;;;;;;;19.77;12.40;;;;;;;4.63;54.17;100250.42;1771283;81;20934;-36
2021/10/20 04:34:55;;;;;;;19.55;12.60;;;;;;;4.66;54.35;100252.50;1770467;81;21011;-36
2021/10/20 04:37:25;;;;;;;25.10;13.28;;;;;;;4.68;54.37;100240.93;1771412;81;21001;-36
2021/10/20 04:39:53;;;;;;;21.55;12.82;;;;;;;4.69;54.63;100233.67;1771126;81;21179;-36
2021/10/20 04:42:20;;;;;;;22.20;13.25;;;;;;;4.67;54.73;100219.19;1771237;80;21101;-36
2021/10/20 04:44:47;;;;;;;24.18;13.35;;;;;;;4.67;54.86;100229.93;1771195;81;21008;-36
2021/10/20 04:47:13;;;;;;;23.35;13.78;;;;;;;4.65;55.07;100222.70;1763696;80;20985;-36
2021/10/20 04:49:40;;;;;;;28.70;14.87;;;;;;;4.64;55.25;100223.03;1760822;80;21025;-36
2021/10/20 04:52:06;;;;;;;25.90;13.60;;;;;;;4.64;55.34;100233.22;1783937;80;21492;-37
2021/10/20 04:54:33;;;;;;;24.70;13.28;;;;;;;4.65;55.55;100233.45;1754106;81;21124;-36
2021/10/20 04:57:00;;;;;;;27.02;14.23;;;;;;;4.67;55.57;100231.27;1743522;82;21077;-36
2021/10/20 04:59:31;;;;;;;25.32;13.78;;;;;;;4.70;55.63;100223.95;1742781;82;21001;-36
2021/10/20 05:01:55;;;;;;;28.83;13.88;;;;;;;4.75;55.73;100225.20;1753383;81;21007;-36
2021/10/20 05:04:22;;;;;;;39.45;13.93;;;;;;;4.84;55.69;100229.88;1742748;82;21006;-36
2021/10/20 05:06:48;;;;;;;36.05;14.58;;;;;;;4.89;55.78;100225.17;1742782;81;21927;-36
2021/10/20 05:09:15;;;;;;;26.10;14.05;;;;;;;4.96;55.74;100222.89;1742616;82;21024;-36
2021/10/20 05:11:41;;;;;;;24.50;14.07;;;;;;;5.01;55.66;100225.48;1742893;81;20982;-36
2021/10/20 05:14:08;;;;;;;23.05;13.20;;;;;;;5.07;55.55;100227.52;1742802;82;20981;-36
2021/10/20 05:16:34;;;;;;;27.30;14.65;;;;;;;5.11;55.59;100221.77;1743127;82;21060;-36
2021/10/20 05:19:02;;;;;;;27.77;14.47;;;;;;;5.12;55.62;100234.13;1742814;81;21125;-36
2021/10/20 05:21:30;;;;;;;24.45;14.95;;;;;;;5.15;55.79;100231.62;1742565;82;21021;-36
2021/10/20 05:23:57;;;;;;;25.80;14.40;;;;;;;5.19;55.92;100235.83;1753403;81;21025;-36
2021/10/20 05:26:24;;;;;;;25.90;14.23;;;;;;;5.23;56.12;100229.55;1742793;82;20941;-36
2021/10/20 05:28:50;;;;;;;23.60;14.87;;;;;;;5.28;56.35;100227.30;1742986;82;21037;-36
2021/10/20 05:31:17;;;;;;;36.73;15.25;;;;;;;5.31;56.61;100224.02;1742763;82;21149;-36
2021/10/20 05:33:44;;;;;;;26.00;15.45;;;;;;;5.38;56.97;100233.00;1742923;81;21063;-36
2021/10/20 05:36:10;;;;;;;32.13;16.23;;;;;;;5.42;57.31;100228.62;1743037;81;21069;-36
2021/10/20 05:38:37;;;;;;;31.17;16.50;;;;;;;5.50;57.70;100221.16;1711608;82;21705;-36
2021/10/20 05:41:04;;;;;;;31.02;17.82;;;;;;;5.56;58.09;100219.41;1743532;82;21116;-36
2021/10/20 05:43:30;;;;;;;27.35;15.88;;;;;;;5.62;58.51;100216.83;1742978;82;21107;-36
2021/10/20 05:45:56;;;;;;;28.92;16.77;;;;;;;5.69;58.75;100209.14;1743017;81;20965;-37
2021/10/20 05:48:23;;;;;;;33.00;16.87;;;;;;;5.79;59.12;100207.30;1751780;81;21492;-36
2021/10/20 05:50:51;;;;;;;27.07;17.52;;;;;;;5.88;59.95;100205.48;1752085;81;20988;-36
2021/10/20 05:53:17;;;;;;;29.48;16.05;;;;;;;5.94;60.29;100201.02;1751808;81;21057;-37
2021/10/20 05:55:44;;;;;;;31.50;17.95;;;;;;;6.09;60.44;100194.45;1752249;81;21554;-36
2021/10/20 05:58:11;;;;;;;32.73;17.40;;;;;;;6.21;60.61;100192.51;1754045;81;20956;-37
2021/10/20 06:00:38;;;;;;;29.95;18.05;;;;;;;6.28;60.96;100189.63;1754363;81;21537;-36
2021/10/20 06:03:05;;;;;;;30.27;17.62;;;;;;;6.32;61.58;100191.94;1754301;81;21011;-36
2021/10/20 06:05:32;;;;;;;28.77;16.82;;;;;;;6.35;61.61;100188.61;1754418;81;21510;-36
2021/10/20 06:07:59;;;;;;;29.90;17.82;;;;;;;6.39;61.61;100184.19;1754015;81;21135;-36
2021/10/20 06:10:25;;;;;;;31.23;18.32;;;;;;;6.47;61.46;100190.19;1754331;81;21026;-36
2021/10/20 06:12:52;;;;;;;28.25;17.73;;;;;;;6.54;61.39;100194.55;1737858;82;20947;-36
2021/10/20 06:15:23;;;;;;;35.30;18.12;;;;;;;6.59;61.35;100192.27;1746130;82;21029;-36
2021/10/20 06:17:49;;;;;;;32.75;17.23;;;;;;;6.64;61.43;100183.24;1746096;82;21014;-36
2021/10/20 06:20:16;;;;;;;28.17;18.15;;;;;;;6.72;61.59;100184.64;1746027;82;21138;-36
2021/10/20 06:22:43;;;;;;;32.67;16.67;;;;;;;6.80;61.85;100185.75;1745901;82;21529;-37
2021/10/20 06:25:10;;;;;;;27.50;16.45;;;;;;;6.89;62.11;100177.13;1746342;82;20977;-36
2021/10/20 06:27:39;;;;;;;28.27;16.42;;;;;;;7.02;62.19;100172.14;1746052;81;20986;-36
2021/10/20 06:30:07;;;;;;;25.55;17.40;;;;;;;7.15;62.21;100164.48;1746133;81;21018;-36
2021/10/20 06:32:34;;;;;;;33.42;17.48;;;;;;;7.28;62.10;100165.42;1751440;80;21095;-36
2021/10/20 06:35:01;;;;;;;28.02;18.25;;;;;;;7.37;62.05;100163.52;1750103;80;21008;-36
2021/10/20 06:37:30;;;;;;;28.57;18.07;;;;;;;7.49;62.18;100164.23;1753971;81;20896;-37
2021/10/20 06:40:00;;;;;;;28.75;17.57;;;;;;;7.52;62.26;100159.53;1754443;81;21002;-36
2021/10/20 06:42:25;;;;;;;26.95;17.27;;;;;;;7.56;62.55;100161.83;1753609;81;21008;-36
2021/10/20 06:44:51;;;;;;;27.32;16.62;;;;;;;7.59;62.63;100155.25;1754154;81;21150;-36
2021/10/20 06:47:19;;;;;;;23.47;16.12;;;;;;;7.63;62.96;100140.55;1761461;81;21003;-37
2021/10/20 06:49:45;;;;;;;31.25;15.60;;;;;;;7.72;63.05;100147.52;1770197;81;20942;-36
2021/10/20 06:52:12;;;;;;;23.45;14.50;;;;;;;7.86;63.06;100143.28;1769828;81;20997;-37
2021/10/20 06:54:39;;;;;;;26.48;15.08;;;;;;;7.96;63.00;100147.53;1769864;81;21009;-37
2021/10/20 06:57:05;;;;;;;24.80;15.50;;;;;;;7.99;63.45;100149.02;1770066;81;21131;-36
2021/10/20 06:59:32;;;;;;;24.07;15.32;;;;;;;8.07;63.30;100148.22;1769824;81;21954;-37
2021/10/20 07:01:59;;;;;;;24.25;15.60;;;;;;;8.09;63.35;100145.97;1770234;81;21469;-36
2021/10/20 07:04:26;;;;;;;22.95;15.43;;;;;;;8.11;63.42;100151.86;1769837;81;20930;-36
2021/10/20 07:06:55;;;;;;;23.22;14.50;;;;;;;8.14;63.45;100145.80;1770041;81;21025;-36
2021/10/20 07:09:22;;;;;;;20.62;14.95;;;;;;;8.21;63.41;100146.10;1769905;81;21144;-36
2021/10/20 07:11:50;;;;;;;20.02;13.70;;;;;;;8.36;63.33;100152.91;1769966;81;21012;-37
2021/10/20 07:14:19;;;;;;;21.70;15.00;;;;;;;8.49;63.31;100144.33;1769832;81;20962;-37
2021/10/20 07:16:45;;;;;;;22.98;14.23;;;;;;;8.59;63.28;100142.60;1770021;81;21042;-37
2021/10/20 07:19:12;;;;;;;23.07;15.50;;;;;;;8.68;63.19;100145.48;1770051;81;21084;-37
2021/10/20 07:21:39;;;;;;;29.55;16.30;;;;;;;8.82;63.20;100144.44;1769807;81;21104;-36
2021/10/20 07:24:06;;;;;;;26.45;16.60;;;;;;;8.92;62.98;100133.24;1769916;81;20975;-37
2021/10/20 07:26:33;;;;;;;23.83;15.98;;;;;;;9.01;63.09;100133.41;1770004;81;21825;-37
2021/10/20 07:28:59;;;;;;;24.35;15.68;;;;;;;9.09;62.99;100136.63;1769910;81;20981;-36
2021/10/20 07:31:29;;;;;;;25.20;16.40;;;;;;;9.17;62.66;100141.72;1769745;81;21077;-36
2021/10/20 07:33:57;;;;;;;21.62;15.35;;;;;;;9.28;62.52;100130.73;1769878;81;21149;-36
2021/10/20 07:36:24;;;;;;;25.57;17.45;;;;;;;9.36;62.42;100129.06;1769968;81;21080;-36
2021/10/20 07:38:52;;;;;;;26.37;17.15;;;;;;;9.41;62.36;100119.39;1769832;81;21037;-37
2021/10/20 07:41:19;;;;;;;27.05;17.75;;;;;;;9.46;62.33;100123.24;1769985;81;20929;-37
2021/10/20 07:43:45;;;;;;;25.68;17.77;;;;;;;9.51;62.22;100115.71;1770235;81;21053;-37
2021/10/20 07:46:12;;;;;;;26.82;17.92;;;;;;;9.59;62.35;100119.45;1769868;81;21149;-36
2021/10/20 07:48:38;;;;;;;28.73;17.87;;;;;;;9.68;62.29;100116.11;1770038;81;20954;-36
2021/10/20 07:51:05;;;;;;;24.77;17.00;;;;;;;9.78;62.22;100117.02;1770088;81;21523;-36
2021/10/20 07:53:32;;;;;;;26.52;17.52;;;;;;;9.94;61.92;100112.53;1769964;81;21812;-37
2021/10/20 07:55:59;;;;;;;32.10;18.92;;;;;;;10.13;61.79;100113.34;1769863;81;21021;-36
2021/10/20 07:58:26;;;;;;;26.45;17.55;;;;;;;10.26;61.59;100120.38;1769990;81;21110;-37
2021/10/20 08:00:52;;;;;;;23.98;17.73;;;;;;;10.34;61.45;100114.06;1769811;81;20957;-37
2021/10/20 08:03:20;;;;;;;29.00;18.25;;;;;;;10.40;61.52;100121.41;1769815;81;20989;-37
2021/10/20 08:05:47;;;;;;;24.37;18.65;;;;;;;10.46;61.48;100117.32;1769799;81;21009;-37
2021/10/20 08:08:13;;;;;;;28.73;20.00;;;;;;;10.53;61.25;100116.20;1769762;81;21006;-37
2021/10/20 08:10:41;;;;;;;29.40;19.37;;;;;;;10.56;61.02;100097.89;1769928;81;21183;-36
2021/10/20 08:13:07;;;;;;;28.23;18.98;;;;;;;10.57;61.05;100100.83;1769772;81;20977;-36
2021/10/20 08:15:34;;;;;;;26.35;18.35;;;;;;;10.62;61.03;100091.11;1770264;81;21021;-37
2021/10/20 08:18:04;;;;;;;25.50;17.77;;;;;;;10.68;60.77;100085.69;1769916;81;21535;-37
2021/10/20 08:20:31;;;;;;;24.25;17.65;;;;;;;10.79;60.63;100082.73;1769703;81;21504;-37
2021/10/20 08:22:59;;;;;;;24.02;18.00;;;;;;;10.94;60.35;100068.22;1769921;81;21109;-37
2021/10/20 08:25:26;;;;;;;26.93;18.10;;;;;;;11.07;60.04;100058.89;1770323;81;20934;-36
2021/10/20 08:27:53;;;;;;;27.58;18.32;;;;;;;11.17;59.86;100055.69;1769765;81;21033;-37
2021/10/20 08:30:20;;;;;;;25.77;18.00;;;;;;;11.27;59.68;100053.83;1770147;81;21001;-36
2021/10/20 08:32:52;;;;;;;29.45;18.92;;;;;;;11.36;59.41;100043.60;1770063;81;21068;-37
2021/10/20 08:35:19;;;;;;;23.90;17.57;;;;;;;11.42;59.45;100050.36;1770327;81;21079;-37
2021/10/20 08:37:54;;;;;;;28.02;18.60;;;;;;;11.52;59.49;100036.25;1769999;81;21026;-40
2021/10/20 08:40:17;;;;;;;25.77;17.57;;;;;;;11.64;59.17;100040.26;1769818;81;21495;-37
2021/10/20 08:42:44;;;;;;;38.85;19.27;;;;;;;11.81;58.92;100038.38;1770370;81;20994;-37
2021/10/20 08:45:11;;;;;;;26.80;17.95;;;;;;;12.00;58.53;100039.81;1770189;81;20985;-37
2021/10/20 08:47:39;;;;;;;25.72;18.55;;;;;;;12.17;58.13;100039.44;1764461;81;21979;-37
2021/10/20 08:50:08;;;;;;;25.68;16.95;;;;;;;12.33;57.77;100033.41;1753728;81;21009;-37
2021/10/20 08:52:35;;;;;;;26.85;17.80;;;;;;;12.47;57.20;100033.72;1753697;81;21002;-36
2021/10/20 08:55:02;;;;;;;28.70;18.65;;;;;;;12.55;56.97;100035.44;1753622;81;21019;-37
2021/10/20 08:57:29;;;;;;;28.45;18.32;;;;;;;12.63;56.70;100028.99;1753633;81;21088;-37
2021/10/20 08:59:55;;;;;;;28.57;19.55;;;;;;;12.68;56.64;100029.88;1753733;81;21956;-37
2021/10/20 09:02:22;;;;;;;29.02;19.62;;;;;;;12.74;56.56;100030.58;1753551;81;21038;-37
2021/10/20 09:04:55;;;;;;;23.87;17.55;;;;;;;12.83;56.44;100026.31;1753933;81;21086;-37
2021/10/20 09:07:22;;;;;;;28.35;17.70;;;;;;;12.94;55.94;100020.49;1753504;81;21074;-37
2021/10/20 09:09:52;;;;;;;23.20;16.37;;;;;;;13.06;55.96;100014.34;1753779;81;21046;-37
2021/10/20 09:12:28;;;;;;;25.82;17.12;;;;;;;13.21;55.15;100009.98;1747581;81;21060;-37
2021/10/20 09:14:58;;;;;;;21.90;16.25;;;;;;;13.35;54.71;100005.36;1753459;81;20965;-37
2021/10/20 09:17:28;;;;;;;27.50;16.55;;;;;;;13.49;54.44;99999.59;1733000;81;20969;-37
2021/10/20 09:19:59;;;;;;;21.93;15.75;;;;;;;13.64;54.20;99997.11;1731297;81;21512;-37
2021/10/20 09:22:25;;;;;;;24.47;16.17;;;;;;;13.77;53.56;99999.27;1753501;81;21018;-37
2021/10/20 09:24:52;;;;;;;24.67;16.42;;;;;;;13.89;53.16;99992.84;1753970;81;21820;-37
2021/10/20 09:27:29;;;;;;;21.15;16.57;;;;;;;14.01;52.84;100000.02;1753433;81;21061;-37
2021/10/20 09:30:13;;;;;;;23.32;16.02;;;;;;;14.12;52.54;99996.31;1753657;81;20979;-37
2021/10/20 09:32:41;;;;;;;30.35;15.65;;;;;;;14.27;52.21;100004.13;1753624;81;21081;-38
2021/10/20 09:35:12;;;;;;;22.98;14.95;;;;;;;14.40;51.50;100002.77;1753930;81;21053;-37
2021/10/20 09:37:40;;;;;;;20.12;15.48;;;;;;;14.45;51.25;99983.92;1753545;81;21221;-37
2021/10/20 09:40:11;;;;;;;24.07;15.85;;;;;;;14.44;51.31;99985.08;1753681;81;21563;-37
2021/10/20 09:42:49;;;;;;;24.18;15.55;;;;;;;14.41;51.34;99992.07;1752924;81;21002;-37
2021/10/20 09:45:18;;;;;;;25.00;15.50;;;;;;;14.40;51.22;99980.95;1753681;81;21085;-37
2021/10/20 09:47:45;;;;;;;22.02;15.48;;;;;;;14.32;51.55;99975.95;1753597;81;21077;-37
2021/10/20 09:50:15;;;;;;;24.15;15.98;;;;;;;14.29;51.71;99972.58;1753825;81;21120;-37
2021/10/20 09:52:49;;;;;;;24.75;16.40;;;;;;;14.27;51.75;99979.00;1753611;81;21037;-37
2021/10/20 09:55:26;;;;;;;28.38;15.53;;;;;;;14.26;51.61;99962.42;1753585;81;20986;-37
2021/10/20 09:58:13;;;;;;;21.17;16.23;;;;;;;14.24;51.43;99964.72;1753907;81;21026;-37
2021/10/20 10:00:41;;;;;;;22.48;16.00;;;;;;;14.22;51.61;99962.95;1753860;81;21034;-37
2021/10/20 10:03:09;;;;;;;20.82;15.88;;;;;;;14.18;51.57;99964.06;1753897;81;21158;-37
2021/10/20 10:05:35;;;;;;;21.80;14.07;;;;;;;14.16;51.76;99953.52;1753398;81;20990;-37
2021/10/20 10:08:03;;;;;;;17.17;12.70;;;;;;;14.18;51.54;99951.80;1753516;81;20962;-37
2021/10/20 10:10:30;;;;;;;20.08;14.20;;;;;;;14.22;51.73;99946.59;1753542;81;21012;-37
2021/10/20 10:13:06;;;;;;;18.57;12.75;;;;;;;14.28;51.33;99952.52;1753537;81;21568;-37
2021/10/20 10:15:39;;;;;;;19.73;14.18;;;;;;;14.31;51.14;99943.59;1744991;81;21815;-38
2021/10/20 10:18:08;;;;;;;19.20;14.13;;;;;;;14.30;51.16;99936.55;1753548;81;20934;-37
2021/10/20 10:20:43;;;;;;;19.37;13.90;;;;;;;14.27;51.25;99923.09;1753463;81;21025;-37
2021/10/20 10:23:23;;;;;;;20.52;14.03;;;;;;;14.27;51.37;99927.18;1753548;81;21040;-37
2021/10/20 10:26:08;;;;;;;24.05;14.23;;;;;;;14.30;51.36;99930.52;1753640;81;27188;-37
2021/10/20 10:28:35;;;;;;;23.45;13.65;;;;;;;14.41;51.47;99914.91;1753521;81;21144;-37
2021/10/20 10:31:10;;;;;;;19.23;13.30;;;;;;;14.50;51.03;99913.45;1753399;81;20915;-37
2021/10/20 10:33:54;;;;;;;19.15;12.55;;;;;;;14.61;50.69;99897.22;1753395;81;21037;-37
2021/10/20 10:36:23;;;;;;;17.45;11.65;;;;;;;14.72;50.35;99888.55;1735070;81;21082;-38
2021/10/20 10:39:04;;;;;;;14.58;10.65;;;;;;;14.87;49.79;99885.38;1753610;81;21002;-37
2021/10/20 10:41:46;;;;;;;18.32;10.82;;;;;;;14.99;49.32;99878.30;1753771;81;21217;-37
2021/10/20 10:44:23;;;;;;;14.83;11.05;;;;;;;15.09;49.02;99877.03;1753903;81;20973;-38
2021/10/20 10:47:29;;;;;;;16.62;11.10;;;;;;;15.15;48.82;99891.13;1753808;81;20962;-37
2021/10/20 10:49:56;;;;;;;15.25;10.98;;;;;;;15.18;48.68;99874.77;1769111;81;21069;-37
2021/10/20 10:52:33;;;;;;;27.42;10.28;;;;;;;15.19;48.42;99863.27;1770021;81;21021;-37
2021/10/20 10:55:08;;;;;;;24.87;11.08;;;;;;;15.20;48.28;99865.59;1764022;81;21120;-38
2021/10/20 10:57:44;;;;;;;20.20;10.82;;;;;;;15.18;48.45;99861.69;1769968;81;20965;-37
2021/10/20 11:00:21;;;;;;;17.42;9.85;;;;;;;15.12;48.47;99853.05;1769932;81;21033;-37
2021/10/20 11:02:55;;;;;;;17.62;10.55;;;;;;;15.09;48.61;99846.20;1769871;81;21535;-37
2021/10/20 11:05:32;;;;;;;17.37;10.38;;;;;;;15.08;48.79;99844.05;1769858;81;21029;-37
2021/10/20 11:08:03;;;;;;;18.57;10.55;;;;;;;15.08;48.80;99837.23;1770152;81;21492;-37
2021/10/20 11:10:30;;;;;;;15.85;10.65;;;;;;;15.08;48.70;99839.95;1769869;81;21124;-37
2021/10/20 11:12:59;;;;;;;15.00;10.08;;;;;;;15.11;48.69;99835.09;1769982;81;21014;-37
2021/10/20 11:15:27;;;;;;;18.55;10.40;;;;;;;15.20;48.58;99834.80;1769934;81;20938;-37
2021/10/20 11:17:56;;;;;;;17.00;10.40;;;;;;;15.29;48.51;99830.37;1770048;81;21050;-38
2021/10/20 11:20:25;;;;;;;15.18;10.23;;;;;;;15.36;48.30;99824.36;1769960;81;21169;-37
2021/10/20 11:22:55;;;;;;;13.15;9.68;;;;;;;15.43;48.11;99814.07;1770380;81;21026;-38
2021/10/20 11:25:23;;;;;;;;;;;;;;;15.48;47.88;99813.72;1772782;81;21069;-37